»·PEaware :: N6229P CYSE-KFHR

N6229P :: CYSE-KFHR

FLIGHT INFORMATION

Flight Status: Arrived
Operator: Privately registered:
United States
More flights under this callsign
Pilot: Mark M. (12592)
Aircraft: PIPER PA-24 COMMANCHE
(PA24)
More flights by this aircraft type
Origin: CYSE Squamish
Canada
Destination: KFHR Friday Harbor
United States
More flights between these airports :: More routes between these airports
Route: +YVR BUICK FHR
File this flight plan on PilotEdge
Remarks: COMPOSITE FLT PLN, IFR FROM YVR TO FHR
Altitude:
(Current/Filed)
3,500ft
Speed:
(Current/Filed)
145kts
Departed: 06-May-17 04:01 PM
Arrived: 06-May-17 04:41 PM
Distance/Time
Traveled:
76nm/0:40
Distance/Time
To Go:
Arrived

Flight Plot

Page will automatically refresh every two minutes.

Flight plan parsing failed; only flown route is shown


Map Options




Map Legend


Flown Route
Filed Route
Departure Airport
Arrival Airport
Navaid (VOR, NDB)
Fix

Horizontal Profiles

Position Reports

Time Latitude Longitude Heading Altitude Ground
Speed
06-May-17 14:58 49.784339 -123.159872 171 174ft 0kts
06-May-17 14:59 49.784339 -123.159872 171 174ft 0kts
06-May-17 15:00 49.784339 -123.159872 171 174ft 0kts
06-May-17 15:01 49.784339 -123.159872 171 174ft 0kts
06-May-17 15:02 49.784339 -123.159872 171 174ft 0kts
06-May-17 15:03 49.784338 -123.159871 171 174ft 0kts
06-May-17 15:04 49.784335 -123.159871 171 174ft 0kts
06-May-17 15:05 49.784332 -123.159870 171 174ft 0kts
06-May-17 15:06 49.784329 -123.159869 171 174ft 0kts
06-May-17 15:07 49.784326 -123.159869 171 174ft 0kts
06-May-17 15:08 49.784323 -123.159868 171 174ft 0kts
06-May-17 15:09 49.784320 -123.159868 171 174ft 0kts
06-May-17 15:10 49.784317 -123.159867 171 174ft 0kts
06-May-17 15:11 49.784300 -123.159856 151 174ft 0kts
06-May-17 15:12 49.784300 -123.159856 151 174ft 0kts
06-May-17 15:13 49.784300 -123.159856 151 174ft 0kts
06-May-17 15:14 49.784300 -123.159856 151 174ft 0kts
06-May-17 15:15 49.784300 -123.159856 151 174ft 0kts
06-May-17 15:16 49.784300 -123.159856 151 174ft 0kts
06-May-17 15:17 49.784300 -123.159856 151 174ft 0kts
06-May-17 15:18 49.784300 -123.159856 151 174ft 0kts
06-May-17 15:19 49.784300 -123.159856 151 174ft 0kts
06-May-17 15:20 49.784300 -123.159856 151 174ft 0kts
06-May-17 15:21 49.784300 -123.159856 151 174ft 0kts
06-May-17 15:22 49.784300 -123.159856 151 174ft 0kts
06-May-17 15:23 49.784300 -123.159856 151 174ft 0kts
06-May-17 15:24 49.784300 -123.159856 151 174ft 0kts
06-May-17 15:25 49.784300 -123.159856 151 174ft 0kts
06-May-17 15:26 49.784300 -123.159856 151 174ft 0kts
06-May-17 15:27 49.784300 -123.159856 151 174ft 0kts
06-May-17 15:28 49.784300 -123.159856 151 174ft 0kts
06-May-17 15:29 49.784300 -123.159856 151 174ft 0kts
06-May-17 15:30 49.784300 -123.159856 151 174ft 0kts
06-May-17 15:31 49.784300 -123.159856 151 174ft 0kts
06-May-17 15:32 49.784300 -123.159856 151 174ft 0kts
06-May-17 15:33 49.784300 -123.159856 151 174ft 0kts
06-May-17 15:34 49.784300 -123.159856 151 174ft 0kts
06-May-17 15:35 49.784300 -123.159856 151 174ft 0kts
06-May-17 15:36 49.784300 -123.159856 151 174ft 0kts
06-May-17 15:37 49.784300 -123.159856 151 174ft 0kts
06-May-17 15:38 49.784300 -123.159856 151 174ft 0kts
06-May-17 15:39 49.784300 -123.159856 151 174ft 0kts
06-May-17 15:40 49.784300 -123.159856 151 174ft 0kts
06-May-17 15:41 49.784300 -123.159856 151 174ft 0kts
06-May-17 15:42 49.784300 -123.159856 151 174ft 0kts
06-May-17 15:43 49.784300 -123.159856 151 174ft 0kts
06-May-17 15:44 49.784300 -123.159856 151 174ft 0kts
06-May-17 15:45 49.784300 -123.159856 151 174ft 0kts
06-May-17 15:46 49.784300 -123.159856 151 174ft 0kts
06-May-17 15:47 49.784300 -123.159856 151 174ft 0kts
06-May-17 15:48 49.784300 -123.159856 151 174ft 0kts
06-May-17 15:49 49.784300 -123.159856 151 174ft 0kts
06-May-17 15:50 49.784300 -123.159856 151 174ft 0kts
06-May-17 15:51 49.784300 -123.159856 151 174ft 0kts
06-May-17 15:52 49.784300 -123.159856 151 174ft 0kts
06-May-17 15:53 49.784300 -123.159856 151 174ft 0kts
06-May-17 15:54 49.784300 -123.159856 151 174ft 0kts
06-May-17 15:55 49.784300 -123.159856 151 174ft 0kts
06-May-17 15:56 49.784300 -123.159856 151 174ft 0kts
06-May-17 15:57 49.784300 -123.159856 151 174ft 0kts
06-May-17 15:58 49.784300 -123.159856 151 174ft 0kts
06-May-17 15:59 49.784300 -123.159856 151 174ft 0kts
06-May-17 16:00 49.784300 -123.159856 151 174ft 0kts
06-May-17 16:01 49.784300 -123.159856 151 174ft 0kts
06-May-17 16:02 49.784300 -123.159856 151 174ft 0kts
06-May-17 16:03 49.367223 -123.273101 170 3560ft 150kts
06-May-17 16:04 49.326146 -123.260903 169 3562ft 151kts
06-May-17 16:05 49.286473 -123.239600 161 3561ft 151kts
06-May-17 16:07 49.206411 -123.200677 166 3562ft 150kts
06-May-17 16:08 49.165368 -123.188026 170 3562ft 150kts
06-May-17 16:09 49.125088 -123.171061 149 3564ft 154kts
06-May-17 16:10 49.104270 -123.153476 151 3561ft 152kts
06-May-17 16:11 49.065204 -123.133793 193 3563ft 152kts
06-May-17 16:12 49.027203 -123.149031 196 3588ft 148kts
06-May-17 16:13 48.991025 -123.153278 188 4507ft 125kts
06-May-17 16:14 48.955115 -123.152629 181 4989ft 142kts
06-May-17 16:15 48.914035 -123.157421 190 5004ft 150kts
06-May-17 16:16 48.873274 -123.156574 176 4967ft 152kts
06-May-17 16:17 48.832886 -123.156455 183 4998ft 147kts
06-May-17 16:18 48.791279 -123.158588 175 5003ft 153kts
06-May-17 16:19 48.749320 -123.137166 162 4644ft 163kts
06-May-17 16:20 48.706149 -123.113712 162 4195ft 165kts
06-May-17 16:21 48.663533 -123.090696 162 3976ft 156kts
06-May-17 16:22 48.623086 -123.069388 162 3968ft 153kts
06-May-17 16:23 48.583822 -123.049621 163 3985ft 153kts
06-May-17 16:24 48.543135 -123.030888 167 3998ft 152kts
06-May-17 16:25 48.502426 -123.020993 177 3748ft 149kts
06-May-17 16:26 48.461894 -123.016442 177 3404ft 144kts
06-May-17 16:27 48.425119 -122.995662 130 3008ft 146kts
06-May-17 16:28 48.399180 -122.948236 140 2647ft 144kts
06-May-17 16:29 48.375658 -122.968257 291 2533ft 124kts
06-May-17 16:30 48.400545 -123.007800 311 2291ft 128kts
06-May-17 16:31 48.432568 -123.020788 354 1926ft 118kts
06-May-17 16:43 48.526500 -123.025300 0 108ft 0kts
06-May-17 16:44 48.526552 -123.025297 32 108ft 3kts
06-May-17 16:45 48.526351 -123.024716 176 108ft 0kts
06-May-17 16:46 48.514770 -123.022961 177 557ft 87kts
06-May-17 16:47 48.495515 -123.034201 275 1143ft 113kts
06-May-17 16:48 48.514118 -123.055913 357 1124ft 136kts
06-May-17 16:49 48.547706 -123.053520 22 897ft 105kts
06-May-17 16:50 48.544117 -123.026032 179 536ft 75kts
06-May-17 16:51 48.524801 -123.024573 181 113ft 60kts
06-May-17 16:52 48.519281 -123.024177 175 108ft 9kts
06-May-17 16:53 48.517590 -123.024635 356 108ft 10kts
06-May-17 16:54 48.522654 -123.025071 357 108ft 19kts
06-May-17 16:55 48.524243 -123.025654 218 108ft 2kts
06-May-17 16:56 48.524228 -123.025752 265 108ft 0kts
06-May-17 16:57 48.524228 -123.025752 265 108ft 0kts
06-May-17 16:58 48.524250 -123.025616 262 108ft 0kts

Navigation Log

Ident Type
Flight plan parsing failed, navigation log unavailable